createdAt,value
2022-08-03T00:00:26.454Z,100979.09
2022-08-03T00:02:53.938Z,100975.59
2022-08-03T00:05:21.191Z,100964.88
2022-08-03T00:07:48.589Z,100965.56
2022-08-03T00:10:17.118Z,100970.09
2022-08-03T00:12:44.237Z,100967.41
2022-08-03T00:15:16.418Z,100964.72
2022-08-03T00:17:52.118Z,100963.06
2022-08-03T00:20:21.733Z,100963.19
2022-08-03T00:22:49.616Z,100961.66
2022-08-03T00:25:16.796Z,100959.16
2022-08-03T00:27:44.087Z,100956.59
2022-08-03T00:30:11.744Z,100963.78
2022-08-03T00:32:44.280Z,100958.44
2022-08-03T00:35:32.511Z,100958.59
2022-08-03T00:37:59.862Z,100946.19
2022-08-03T00:40:27.011Z,100942.66
2022-08-03T00:42:55.899Z,100944.38
2022-08-03T00:45:28.053Z,100936.19
2022-08-03T00:47:55.677Z,100938.88
2022-08-03T00:50:23.980Z,100944.06
2022-08-03T00:52:55.945Z,100945.75
2022-08-03T00:55:23.164Z,100936.03
2022-08-03T00:57:50.512Z,100941.38
2022-08-03T01:00:25.579Z,100941.38
2022-08-03T01:02:53.128Z,100938.69
2022-08-03T01:05:23.082Z,100945.91
2022-08-03T01:08:23.214Z,100942.22
2022-08-03T01:10:54.849Z,100935.19
2022-08-03T01:14:02.023Z,100941.53
2022-08-03T01:16:37.007Z,100934.50
2022-08-03T01:19:13.264Z,100929.16
2022-08-03T01:21:49.004Z,100927.31
2022-08-03T01:24:29.498Z,100928.31
2022-08-03T01:27:21.970Z,100919.59
2022-08-03T01:30:24.888Z,100918.75
2022-08-03T01:33:01.830Z,100917.75
2022-08-03T01:35:51.682Z,100908.88
2022-08-03T01:38:33.728Z,100917.06
2022-08-03T01:41:17.845Z,100919.75
2022-08-03T01:44:26.609Z,100909.88
2022-08-03T01:46:36.120Z,100923.09
2022-08-03T01:49:09.141Z,100914.06
2022-08-03T01:51:58.422Z,100916.06
2022-08-03T01:54:26.331Z,100918.59
2022-08-03T01:56:54.719Z,100913.41
2022-08-03T01:59:22.141Z,100910.72
2022-08-03T02:02:31.836Z,100908.03
2022-08-03T02:04:38.164Z,100911.41
2022-08-03T02:07:06.743Z,100909.59
2022-08-03T02:09:34.420Z,100913.22
2022-08-03T02:12:01.847Z,100915.91
2022-08-03T02:14:29.223Z,100912.25
2022-08-03T02:16:56.978Z,100905.91
2022-08-03T02:19:26.701Z,100912.94
2022-08-03T02:21:57.272Z,100907.75
2022-08-03T02:24:29.347Z,100913.09
2022-08-03T02:26:57.128Z,100907.59
2022-08-03T02:29:39.515Z,100911.94
2022-08-03T02:32:14.812Z,100904.75
2022-08-03T02:34:45.255Z,100908.44
2022-08-03T02:37:12.995Z,100906.75
2022-08-03T02:39:40.714Z,100906.75
2022-08-03T02:42:09.739Z,100916.63
2022-08-03T02:44:39.851Z,100903.38
2022-08-03T02:47:10.373Z,100907.88
2022-08-03T02:49:51.658Z,100913.41
2022-08-03T02:52:21.689Z,100909.03
2022-08-03T02:54:52.272Z,100920.75
2022-08-03T02:57:20.109Z,100918.19
2022-08-03T02:59:47.628Z,100919.03
2022-08-03T03:02:16.519Z,100915.50
2022-08-03T03:05:52.873Z,100917.50
2022-08-03T03:07:35.335Z,100920.19
2022-08-03T03:10:12.783Z,100918.63
2022-08-03T03:12:41.195Z,100919.81
2022-08-03T03:15:08.935Z,100918.97
2022-08-03T03:17:37.483Z,100917.41
2022-08-03T03:20:06.225Z,100918.53
2022-08-03T03:22:34.106Z,100919.53
2022-08-03T03:25:01.724Z,100918.00
2022-08-03T03:27:29.227Z,100917.16
2022-08-03T03:29:57.815Z,100921.81
2022-08-03T03:32:27.516Z,100912.94
2022-08-03T03:34:55.301Z,100917.47
2022-08-03T03:37:22.470Z,100913.94
2022-08-03T03:39:49.557Z,100914.78
2022-08-03T03:42:16.943Z,100918.16
2022-08-03T03:44:44.402Z,100915.47
2022-08-03T03:47:11.594Z,100916.19
2022-08-03T03:49:41.031Z,100915.19
2022-08-03T03:52:08.169Z,100911.66
2022-08-03T03:54:42.210Z,100912.50
2022-08-03T03:57:10.471Z,100913.34
2022-08-03T03:59:41.992Z,100906.03
2022-08-03T04:02:09.964Z,100908.53
2022-08-03T04:04:57.500Z,100908.38
2022-08-03T04:07:44.623Z,100906.41
2022-08-03T04:10:37.725Z,100907.09
2022-08-03T04:13:09.897Z,100907.94
2022-08-03T04:15:38.520Z,100915.69
2022-08-03T04:18:07.005Z,100919.03
2022-08-03T04:20:35.570Z,100916.22
2022-08-03T04:23:03.058Z,100912.41
2022-08-03T04:25:40.492Z,100920.28
2022-08-03T04:28:30.652Z,100919.97
2022-08-03T04:30:56.853Z,100918.84
2022-08-03T04:33:29.415Z,100916.84
2022-08-03T04:36:02.825Z,100927.25
2022-08-03T04:38:37.571Z,100929.66
2022-08-03T04:41:04.989Z,100924.13
2022-08-03T04:43:33.731Z,100923.13
2022-08-03T04:46:01.695Z,100924.69
2022-08-03T04:48:28.825Z,100928.75
2022-08-03T04:50:56.022Z,100922.22
2022-08-03T04:53:23.255Z,100929.97
2022-08-03T04:55:50.475Z,100927.81
2022-08-03T04:58:17.607Z,100925.53
2022-08-03T05:00:45.619Z,100927.91
2022-08-03T05:03:23.640Z,100929.44
2022-08-03T05:06:09.961Z,100930.00
2022-08-03T05:08:46.327Z,100933.34
2022-08-03T05:11:15.973Z,100931.06
2022-08-03T05:13:44.478Z,100936.00
2022-08-03T05:16:12.155Z,100929.47
2022-08-03T05:18:39.782Z,100935.19
2022-08-03T05:21:06.874Z,100937.59
2022-08-03T05:23:34.040Z,100938.78
2022-08-03T05:26:01.184Z,100928.63
2022-08-03T05:28:28.380Z,100937.03
2022-08-03T05:30:55.474Z,100934.59
2022-08-03T05:33:22.584Z,100937.31
2022-08-03T05:36:02.171Z,100939.06
2022-08-03T05:38:33.906Z,100939.94
2022-08-03T05:41:23.750Z,100941.84
2022-08-03T05:43:52.384Z,100943.78
2022-08-03T05:46:20.413Z,100951.03
2022-08-03T05:48:47.684Z,100945.19
2022-08-03T05:53:42.949Z,100947.78
2022-08-03T05:56:14.639Z,100953.38
2022-08-03T05:58:48.702Z,100949.75
2022-08-03T06:01:16.821Z,100949.44
2022-08-03T06:03:45.258Z,100950.47
2022-08-03T06:06:12.526Z,100953.06
2022-08-03T06:08:41.056Z,100950.59
2022-08-03T06:11:08.261Z,100953.13
2022-08-03T06:17:22.723Z,100949.31
2022-08-03T06:19:52.563Z,100945.09
2022-08-03T06:22:20.735Z,100950.31
2022-08-03T06:24:53.255Z,100946.63
2022-08-03T06:27:20.949Z,100946.97
2022-08-03T06:30:04.339Z,100951.56
2022-08-03T06:32:31.419Z,100952.72
2022-08-03T06:34:58.517Z,100951.38
2022-08-03T06:37:27.058Z,100947.88
2022-08-03T06:39:54.512Z,100954.72
2022-08-03T06:42:22.651Z,100950.34
2022-08-03T06:44:50.091Z,100951.00
2022-08-03T06:47:17.284Z,100958.03
2022-08-03T06:49:44.549Z,100946.94
2022-08-03T06:52:37.603Z,100951.78
2022-08-03T06:55:06.261Z,100953.94
2022-08-03T06:57:33.761Z,100950.69
2022-08-03T07:00:09.141Z,100940.19
2022-08-03T07:02:39.781Z,100948.25
2022-08-03T07:05:07.954Z,100949.69
2022-08-03T07:07:35.255Z,100948.81
2022-08-03T07:10:02.553Z,100945.03
2022-08-03T07:12:30.212Z,100946.22
2022-08-03T07:15:01.308Z,100941.63
2022-08-03T07:17:30.864Z,100943.38
2022-08-03T07:19:58.261Z,100946.66
2022-08-03T07:22:25.396Z,100948.03
2022-08-03T07:24:52.578Z,100949.81
2022-08-03T07:27:19.715Z,100959.88
2022-08-03T07:29:46.823Z,100954.13
2022-08-03T07:32:14.222Z,100948.09
2022-08-03T07:34:41.469Z,100956.47
2022-08-03T07:37:08.814Z,100949.75
2022-08-03T07:39:35.928Z,100946.22
2022-08-03T07:42:03.223Z,100955.56
2022-08-03T07:44:30.334Z,100951.28
2022-08-03T07:46:57.781Z,100946.75
2022-08-03T07:49:25.408Z,100953.63
2022-08-03T07:52:11.572Z,100949.69
2022-08-03T07:54:38.769Z,100948.63
2022-08-03T07:57:05.890Z,100956.16
2022-08-03T07:59:57.214Z,100953.66
2022-08-03T08:02:22.262Z,100956.19
2022-08-03T08:04:49.389Z,100951.88
2022-08-03T08:07:16.836Z,100952.31
2022-08-03T08:09:45.455Z,100955.91
2022-08-03T08:12:15.129Z,100954.75
2022-08-03T08:14:45.764Z,100943.66
2022-08-03T08:17:13.516Z,100945.63
2022-08-03T08:19:41.500Z,100959.69
2022-08-03T08:22:19.719Z,100948.78
2022-08-03T08:24:55.887Z,100955.56
2022-08-03T08:27:23.078Z,100948.56
2022-08-03T08:29:55.341Z,100951.28
2022-08-03T08:32:23.559Z,100960.59
2022-08-03T08:34:51.015Z,100949.75
2022-08-03T08:37:18.228Z,100947.13
2022-08-03T08:39:45.376Z,100959.97
2022-08-03T08:42:12.541Z,100951.91
2022-08-03T08:44:39.765Z,100952.91
2022-08-03T08:47:08.190Z,100954.63
2022-08-03T08:49:37.096Z,100953.03
2022-08-03T08:52:24.930Z,100958.06
2022-08-03T08:54:56.434Z,100960.34
2022-08-03T08:57:42.750Z,100954.75
2022-08-03T09:00:14.507Z,100953.75
2022-08-03T09:02:45.300Z,100959.78
2022-08-03T09:05:13.665Z,100956.69
2022-08-03T09:07:42.039Z,100950.31
2022-08-03T09:10:13.281Z,100955.13
2022-08-03T09:12:45.872Z,100945.97
2022-08-03T09:15:32.767Z,100947.06
2022-08-03T09:18:01.808Z,100945.38
2022-08-03T09:20:33.835Z,100942.91
2022-08-03T09:23:26.263Z,100932.88
2022-08-03T09:26:00.151Z,100931.06
2022-08-03T09:29:00.752Z,100935.03
2022-08-03T09:31:30.300Z,100933.78
2022-08-03T09:34:00.996Z,100936.72
2022-08-03T09:36:38.041Z,100932.94
2022-08-03T09:39:10.772Z,100938.34
2022-08-03T09:41:39.324Z,100938.59
2022-08-03T09:44:06.608Z,100937.09
2022-08-03T09:46:51.029Z,100928.97
2022-08-03T09:49:18.263Z,100933.13
2022-08-03T09:52:31.835Z,100928.75
2022-08-03T09:54:32.987Z,100932.91
2022-08-03T09:57:00.252Z,100930.16
2022-08-03T09:59:29.519Z,100942.41
2022-08-03T10:01:57.672Z,100933.44
2022-08-03T10:04:25.241Z,100925.94
2022-08-03T10:07:07.548Z,100931.31
2022-08-03T10:09:35.538Z,100919.59
2022-08-03T10:12:12.824Z,100923.56
2022-08-03T10:14:41.880Z,100912.22
2022-08-03T10:17:11.869Z,100918.22
2022-08-03T10:19:39.070Z,100911.91
2022-08-03T10:22:27.806Z,100912.28
2022-08-03T10:25:07.717Z,100905.97
2022-08-03T10:27:37.741Z,100904.84
2022-08-03T10:30:09.920Z,100909.50
2022-08-03T10:32:50.344Z,100905.19
2022-08-03T10:35:21.542Z,100904.34
2022-08-03T10:38:02.366Z,100891.16
2022-08-03T10:40:49.482Z,100904.66
2022-08-03T10:43:23.106Z,100894.56
2022-08-03T10:45:50.540Z,100897.19
2022-08-03T10:48:18.893Z,100892.88
2022-08-03T10:50:47.305Z,100890.25
2022-08-03T10:53:16.552Z,100894.00
2022-08-03T10:56:05.619Z,100887.94
2022-08-03T10:58:57.381Z,100881.84
2022-08-03T11:01:59.117Z,100883.22
2022-08-03T11:04:30.030Z,100882.03
2022-08-03T11:07:23.228Z,100885.34
2022-08-03T11:09:52.923Z,100892.31
2022-08-03T11:12:30.284Z,100888.66
2022-08-03T11:15:10.196Z,100881.75
2022-08-03T11:17:46.311Z,100867.97
2022-08-03T11:20:53.595Z,100869.56
2022-08-03T11:24:04.050Z,100874.59
2022-08-03T11:26:34.208Z,100870.41
2022-08-03T11:29:31.315Z,100864.81
2022-08-03T11:31:58.606Z,100871.06
2022-08-03T11:34:26.127Z,100872.78
2022-08-03T11:37:18.358Z,100870.63
2022-08-03T11:39:47.143Z,100869.34
2022-08-03T11:42:23.182Z,100870.38
2022-08-03T11:44:51.942Z,100868.56
2022-08-03T11:47:20.840Z,100873.19
2022-08-03T11:49:49.068Z,100870.09
2022-08-03T11:52:16.939Z,100865.38
2022-08-03T11:54:44.712Z,100861.44
2022-08-03T11:57:11.905Z,100858.16
2022-08-03T11:59:39.030Z,100854.94
2022-08-03T12:02:12.908Z,100850.78
2022-08-03T12:05:02.581Z,100858.75
2022-08-03T12:08:03.905Z,100859.19
2022-08-03T12:10:17.539Z,100855.03
2022-08-03T12:12:46.727Z,100860.00
2022-08-03T12:15:14.042Z,100862.34
2022-08-03T12:17:41.635Z,100844.72
2022-08-03T12:20:10.326Z,100852.28
2022-08-03T12:22:40.788Z,100853.44
2022-08-03T12:25:09.577Z,100849.09
2022-08-03T12:27:36.928Z,100848.44
2022-08-03T12:30:04.664Z,100844.94
2022-08-03T12:32:31.849Z,100841.31
2022-08-03T12:35:01.254Z,100839.13
2022-08-03T12:37:29.538Z,100838.44
2022-08-03T12:40:09.574Z,100831.72
2022-08-03T12:42:39.333Z,100831.41
2022-08-03T12:45:38.595Z,100828.88
2022-08-03T12:48:09.377Z,100835.59
2022-08-03T12:50:37.728Z,100827.16
2022-08-03T12:53:07.969Z,100823.72
2022-08-03T12:55:40.064Z,100822.75
2022-08-03T12:58:34.693Z,100824.34
2022-08-03T13:01:05.275Z,100824.72
2022-08-03T13:03:52.718Z,100828.09
2022-08-03T13:06:22.769Z,100816.38
2022-08-03T13:08:51.532Z,100810.94
2022-08-03T13:11:47.639Z,100819.34
2022-08-03T13:14:16.728Z,100815.59
2022-08-03T13:16:49.108Z,100816.56
2022-08-03T13:19:16.362Z,100816.66
2022-08-03T13:25:31.707Z,100821.38
2022-08-03T13:28:03.619Z,100807.53
2022-08-03T13:30:32.143Z,100815.13
2022-08-03T13:33:00.437Z,100816.44
2022-08-03T13:35:27.515Z,100816.53
2022-08-03T13:37:54.614Z,100812.66
2022-08-03T13:40:23.540Z,100808.34
2022-08-03T13:42:57.272Z,100804.47
2022-08-03T13:45:24.384Z,100801.66
2022-08-03T13:47:51.984Z,100795.53
2022-08-03T13:50:19.080Z,100800.72
2022-08-03T13:52:49.174Z,100805.78
2022-08-03T13:55:16.258Z,100799.09
2022-08-03T13:58:03.026Z,100799.63
2022-08-03T14:00:30.434Z,100794.56
2022-08-03T14:03:05.073Z,100795.03
2022-08-03T14:05:32.885Z,100794.44
2022-08-03T14:08:05.619Z,100782.91
2022-08-03T14:10:34.775Z,100781.44
2022-08-03T14:13:01.909Z,100781.53
2022-08-03T14:15:29.088Z,100780.41
2022-08-03T14:17:58.633Z,100777.19
2022-08-03T14:20:38.984Z,100782.56
2022-08-03T14:23:16.408Z,100775.38
2022-08-03T14:25:50.406Z,100778.41
2022-08-03T14:28:22.778Z,100765.13
2022-08-03T14:30:53.749Z,100777.19
2022-08-03T14:33:20.908Z,100777.78
2022-08-03T14:35:48.408Z,100781.22
2022-08-03T14:38:15.599Z,100767.66
2022-08-03T14:40:43.076Z,100768.31
2022-08-03T14:43:10.268Z,100773.00
2022-08-03T14:45:38.187Z,100765.13
2022-08-03T14:50:34.481Z,100765.34
2022-08-03T14:50:53.019Z,100767.84
2022-08-03T14:53:20.582Z,100773.00
2022-08-03T14:55:50.495Z,100771.41
2022-08-03T14:58:21.439Z,100771.13
2022-08-03T15:00:49.884Z,100760.59
2022-08-03T15:03:20.130Z,100756.16
2022-08-03T15:05:47.398Z,100761.91
2022-08-03T15:08:14.546Z,100743.66
2022-08-03T15:10:44.564Z,100755.81
2022-08-03T15:13:13.373Z,100749.81
2022-08-03T15:15:40.816Z,100757.31
2022-08-03T15:18:08.411Z,100761.53
2022-08-03T15:20:51.049Z,100751.34
2022-08-03T15:23:18.468Z,100757.00
2022-08-03T15:26:30.330Z,100745.34
2022-08-03T15:28:33.577Z,100736.41
2022-08-03T15:31:01.734Z,100731.31
2022-08-03T15:33:29.387Z,100715.28
2022-08-03T15:35:56.842Z,100720.53
2022-08-03T15:38:26.224Z,100714.97
2022-08-03T15:40:54.965Z,100707.41
2022-08-03T15:43:23.370Z,100709.13
2022-08-03T15:46:12.844Z,100704.81
2022-08-03T15:48:38.192Z,100708.34
2022-08-03T15:51:05.720Z,100704.47
2022-08-03T15:53:33.519Z,100702.09
2022-08-03T15:56:02.561Z,100696.06
2022-08-03T15:59:04.069Z,100704.13
2022-08-03T16:01:20.322Z,100690.81
2022-08-03T16:03:47.513Z,100695.41
2022-08-03T16:06:14.751Z,100694.19
2022-08-03T16:08:41.848Z,100694.66
2022-08-03T16:11:08.928Z,100688.94
2022-08-03T16:14:12.415Z,100688.94
2022-08-03T16:16:23.229Z,100685.66
2022-08-03T16:18:50.317Z,100684.56
2022-08-03T16:21:19.502Z,100668.94
2022-08-03T16:23:48.908Z,100667.25
2022-08-03T16:26:15.995Z,100674.13
2022-08-03T16:28:43.087Z,100669.41
2022-08-03T16:31:10.253Z,100663.47
2022-08-03T16:33:37.393Z,100669.47
2022-08-03T16:36:04.487Z,100679.69
2022-08-03T16:38:31.618Z,100668.25
2022-08-03T16:40:58.744Z,100678.34
2022-08-03T16:43:25.895Z,100676.28
2022-08-03T16:45:53.000Z,100676.47
2022-08-03T16:48:20.256Z,100673.19
2022-08-03T16:50:49.028Z,100676.22
2022-08-03T16:53:17.223Z,100672.72
2022-08-03T16:55:53.934Z,100679.41
2022-08-03T16:58:34.206Z,100677.06
2022-08-03T17:01:24.448Z,100680.84
2022-08-03T17:04:02.411Z,100677.69
2022-08-03T17:06:35.972Z,100683.09
2022-08-03T17:09:08.732Z,100682.44
2022-08-03T17:11:47.755Z,100680.44
2022-08-03T17:14:17.171Z,100676.34
2022-08-03T17:16:52.043Z,100686.94
2022-08-03T17:19:23.172Z,100687.72
2022-08-03T17:22:04.120Z,100691.75
2022-08-03T17:24:32.926Z,100689.19
2022-08-03T17:27:02.722Z,100694.81
2022-08-03T17:29:32.523Z,100695.63
2022-08-03T17:32:00.112Z,100692.84
2022-08-03T17:34:27.220Z,100692.91
2022-08-03T17:37:04.203Z,100692.91
2022-08-03T17:39:56.111Z,100693.19
2022-08-03T17:42:29.523Z,100698.38
2022-08-03T17:45:02.393Z,100699.59
2022-08-03T17:47:41.167Z,100700.41
2022-08-03T17:50:24.235Z,100694.94
2022-08-03T17:53:00.991Z,100698.88
2022-08-03T17:55:56.441Z,100703.91
2022-08-03T17:58:25.930Z,100705.13
2022-08-03T18:01:59.576Z,100707.16
2022-08-03T18:04:10.619Z,100705.50
2022-08-03T18:06:55.504Z,100711.78
2022-08-03T18:10:04.619Z,100705.63
2022-08-03T18:12:26.972Z,100704.78
2022-08-03T18:15:01.302Z,100708.78
2022-08-03T18:17:58.315Z,100705.53
2022-08-03T18:20:32.695Z,100707.03
2022-08-03T18:23:24.970Z,100710.75
2022-08-03T18:26:01.071Z,100709.28
2022-08-03T18:28:28.959Z,100710.91
2022-08-03T18:30:57.709Z,100700.78
2022-08-03T18:34:17.025Z,100708.88
2022-08-03T18:36:21.642Z,100712.34
2022-08-03T18:38:51.837Z,100716.88
2022-08-03T18:41:33.439Z,100723.06
2022-08-03T18:44:09.040Z,100724.28
2022-08-03T18:47:16.810Z,100720.59
2022-08-03T18:50:34.780Z,100718.81
2022-08-03T18:53:15.546Z,100721.66
2022-08-03T18:56:06.382Z,100717.16
2022-08-03T18:59:03.869Z,100722.25
2022-08-03T19:02:00.004Z,100717.06
2022-08-03T19:04:35.951Z,100722.97
2022-08-03T19:07:08.877Z,100725.13
2022-08-03T19:09:49.175Z,100719.34
2022-08-03T19:12:30.940Z,100730.25
2022-08-03T19:17:57.268Z,100729.91
2022-08-03T19:20:27.183Z,100732.50
2022-08-03T19:22:56.746Z,100734.19
2022-08-03T19:29:58.838Z,100737.19
2022-08-03T19:32:24.471Z,100731.78
2022-08-03T19:34:51.691Z,100730.53
2022-08-03T19:37:19.740Z,100731.19
2022-08-03T19:39:56.345Z,100735.56
2022-08-03T19:42:30.671Z,100735.56
2022-08-03T19:45:11.223Z,100737.22
2022-08-03T19:47:47.607Z,100740.09
2022-08-03T19:50:15.769Z,100730.13
2022-08-03T19:52:47.674Z,100738.88
2022-08-03T19:55:17.521Z,100735.53
2022-08-03T20:00:38.276Z,100735.69
2022-08-03T20:03:06.583Z,100731.50
2022-08-03T20:05:52.379Z,100734.19
2022-08-03T20:08:21.933Z,100727.06
2022-08-03T20:10:49.578Z,100723.72
2022-08-03T20:13:19.321Z,100735.97
2022-08-03T20:15:46.765Z,100724.50
2022-08-03T20:18:16.493Z,100723.00
2022-08-03T20:20:46.296Z,100719.00
2022-08-03T20:23:18.106Z,100725.22
2022-08-03T20:25:58.235Z,100733.47
2022-08-03T20:28:32.535Z,100724.09
2022-08-03T20:30:59.997Z,100731.94
2022-08-03T20:33:46.303Z,100731.69
2022-08-03T20:36:18.121Z,100725.81
2022-08-03T20:38:47.912Z,100726.78
2022-08-03T20:41:16.426Z,100734.41
2022-08-03T20:43:43.929Z,100726.03
2022-08-03T20:46:30.974Z,100731.84
2022-08-03T20:48:58.922Z,100729.75
2022-08-03T20:51:50.471Z,100727.22
2022-08-03T20:54:23.159Z,100727.78
2022-08-03T20:56:58.076Z,100728.94
2022-08-03T20:59:36.928Z,100733.66
2022-08-03T21:02:19.170Z,100743.56
2022-08-03T21:04:47.293Z,100739.38
2022-08-03T21:07:19.061Z,100731.03
2022-08-03T21:09:52.530Z,100740.09
2022-08-03T21:12:27.069Z,100730.06
2022-08-03T21:13:03.269Z,100726.75
2022-08-03T21:13:10.080Z,100729.06
2022-08-03T21:15:04.196Z,100734.84
2022-08-03T21:17:41.031Z,100737.09
2022-08-03T21:20:10.668Z,100733.47
2022-08-03T21:22:39.122Z,100733.38
2022-08-03T21:25:09.256Z,100737.28
2022-08-03T21:27:37.082Z,100733.13
2022-08-03T21:30:09.273Z,100730.78
2022-08-03T21:32:40.055Z,100734.25
2022-08-03T21:35:09.977Z,100737.53
2022-08-03T21:37:38.815Z,100730.00
2022-08-03T21:40:07.764Z,100721.63
2022-08-03T21:42:35.231Z,100733.81
2022-08-03T21:45:05.777Z,100734.78
2022-08-03T21:47:35.982Z,100732.63
2022-08-03T21:50:09.548Z,100735.44
2022-08-03T21:52:47.301Z,100734.50
2022-08-03T21:55:20.566Z,100736.75
2022-08-03T21:57:52.741Z,100736.06
2022-08-03T22:00:21.376Z,100737.28
2022-08-03T22:02:55.694Z,100733.28
2022-08-03T22:05:29.204Z,100729.28
2022-08-03T22:08:10.172Z,100733.19
2022-08-03T22:10:37.289Z,100731.69
2022-08-03T22:13:04.400Z,100737.25
2022-08-03T22:15:32.273Z,100735.94
2022-08-03T22:18:03.269Z,100743.22
2022-08-03T22:20:30.781Z,100738.75
2022-08-03T22:23:01.334Z,100744.72
2022-08-03T22:25:30.878Z,100747.75
2022-08-03T22:28:00.480Z,100746.09
2022-08-03T22:30:28.127Z,100746.66
2022-08-03T22:32:56.278Z,100738.91
2022-08-03T22:35:25.632Z,100740.09
2022-08-03T22:37:54.562Z,100746.03
2022-08-03T22:40:21.862Z,100753.84
2022-08-03T22:42:51.977Z,100743.81
2022-08-03T22:46:07.155Z,100743.28
2022-08-03T22:48:07.888Z,100741.97
2022-08-03T22:50:35.343Z,100748.75
2022-08-03T22:53:02.472Z,100750.81
2022-08-03T22:55:29.876Z,100744.75
2022-08-03T22:57:56.960Z,100744.09
2022-08-03T23:00:24.777Z,100750.03
2022-08-03T23:02:53.947Z,100749.53
2022-08-03T23:06:02.273Z,100744.34
2022-08-03T23:08:12.518Z,100751.94
2022-08-03T23:10:44.875Z,100751.28
2022-08-03T23:13:16.209Z,100747.94
2022-08-03T23:15:50.172Z,100744.59
2022-08-03T23:18:19.182Z,100744.75
2022-08-03T23:20:49.882Z,100744.47
2022-08-03T23:23:20.045Z,100744.16
2022-08-03T23:25:49.852Z,100747.38
2022-08-03T23:28:17.496Z,100749.41
2022-08-03T23:30:45.427Z,100741.72
2022-08-03T23:33:17.001Z,100739.38
2022-08-03T23:36:28.725Z,100742.59
2022-08-03T23:38:46.992Z,100746.50
2022-08-03T23:41:14.845Z,100739.59
2022-08-03T23:43:51.420Z,100743.31
2022-08-03T23:46:21.589Z,100734.91
2022-08-03T23:48:49.823Z,100742.16
2022-08-03T23:51:27.053Z,100739.59
2022-08-03T23:54:16.964Z,100742.84
2022-08-03T23:56:52.689Z,100738.47
2022-08-03T23:59:27.559Z,100740.31
